createdAt,value
2023-03-22T00:00:18.566Z,11.41
2023-03-22T00:01:21.596Z,11.51
2023-03-22T00:02:18.881Z,11.44
2023-03-22T00:03:18.570Z,11.37
2023-03-22T00:04:18.724Z,11.44
2023-03-22T00:05:18.562Z,11.38
2023-03-22T00:06:21.346Z,11.26
2023-03-22T00:07:18.516Z,11.22
2023-03-22T00:08:18.514Z,11.23
2023-03-22T00:09:18.514Z,11.15
2023-03-22T00:10:18.564Z,11.1
2023-03-22T00:11:18.518Z,11.05
2023-03-22T00:12:18.516Z,11.04
2023-03-22T00:13:18.501Z,11.05
2023-03-22T00:14:18.507Z,11.08
2023-03-22T00:15:18.591Z,11
2023-03-22T00:16:18.683Z,11.1
2023-03-22T00:17:21.583Z,11.08
2023-03-22T00:18:18.511Z,11.12
2023-03-22T00:19:18.525Z,11.16
2023-03-22T00:20:20.681Z,11.04
2023-03-22T00:21:18.581Z,11.01
2023-03-22T00:22:18.590Z,11.07
2023-03-22T00:23:18.574Z,11.05
2023-03-22T00:24:18.559Z,11.07
2023-03-22T00:25:18.585Z,10.97
2023-03-22T00:26:18.599Z,10.94
2023-03-22T00:27:18.584Z,10.9
2023-03-22T00:28:21.417Z,11
2023-03-22T00:29:18.593Z,10.9
2023-03-22T00:30:18.651Z,10.9
2023-03-22T00:31:18.657Z,10.9
2023-03-22T00:32:18.571Z,10.95
2023-03-22T00:33:18.560Z,10.92
2023-03-22T00:34:18.613Z,10.84
2023-03-22T00:35:18.651Z,10.87
2023-03-22T00:36:18.580Z,11.01
2023-03-22T00:37:18.862Z,10.94
2023-03-22T00:38:19.702Z,10.89
2023-03-22T00:39:21.369Z,10.87
2023-03-22T00:40:20.681Z,10.94
2023-03-22T00:41:18.682Z,10.76
2023-03-22T00:42:18.568Z,10.8
2023-03-22T00:43:18.604Z,10.86
2023-03-22T00:44:18.603Z,10.79
2023-03-22T00:45:18.572Z,10.71
2023-03-22T00:46:18.872Z,10.79
2023-03-22T00:47:18.570Z,10.71
2023-03-22T00:48:18.745Z,10.75
2023-03-22T00:49:18.604Z,10.76
2023-03-22T00:50:21.645Z,10.76
2023-03-22T00:51:18.636Z,10.76
2023-03-22T00:52:18.657Z,10.71
2023-03-22T00:53:18.605Z,10.72
2023-03-22T00:54:18.639Z,10.64
2023-03-22T00:55:18.610Z,10.61
2023-03-22T00:56:19.060Z,10.61
2023-03-22T00:57:18.575Z,10.53
2023-03-22T00:58:18.627Z,10.53
2023-03-22T00:59:18.667Z,10.49
2023-03-22T01:00:18.608Z,10.39
2023-03-22T01:01:22.150Z,10.39
2023-03-22T01:02:18.628Z,10.33
2023-03-22T01:03:18.850Z,10.38
2023-03-22T01:04:18.592Z,10.27
2023-03-22T01:05:18.642Z,10.2
2023-03-22T01:06:18.641Z,10.27
2023-03-22T01:07:18.678Z,10.24
2023-03-22T01:08:18.649Z,10.27
2023-03-22T01:09:18.632Z,10.27
2023-03-22T01:10:18.596Z,10.24
2023-03-22T01:11:18.618Z,10.24
2023-03-22T01:12:21.666Z,10.13
2023-03-22T01:13:20.388Z,10.02
2023-03-22T01:14:18.793Z,10.2
2023-03-22T01:15:18.661Z,10.2
2023-03-22T01:16:18.822Z,10.12
2023-03-22T01:17:18.753Z,10.23
2023-03-22T01:18:18.681Z,10.18
2023-03-22T01:19:18.630Z,10.15
2023-03-22T01:20:18.946Z,10.27
2023-03-22T01:21:18.640Z,10.2
2023-03-22T01:22:18.774Z,10.07
2023-03-22T01:23:18.625Z,10
2023-03-22T01:24:18.646Z,10.07
2023-03-22T01:25:18.683Z,10.1
2023-03-22T01:26:18.700Z,10.15
2023-03-22T01:27:18.684Z,10.05
2023-03-22T01:28:18.683Z,10.02
2023-03-22T01:29:18.641Z,9.97
2023-03-22T01:30:18.656Z,10.02
2023-03-22T01:31:18.900Z,10.03
2023-03-22T01:32:18.637Z,9.95
2023-03-22T01:33:19.116Z,9.99
2023-03-22T01:34:18.659Z,9.9
2023-03-22T01:35:18.659Z,10.06
2023-03-22T01:36:18.687Z,10.02
2023-03-22T01:37:18.761Z,9.99
2023-03-22T01:38:18.656Z,9.97
2023-03-22T01:39:18.635Z,9.92
2023-03-22T01:40:18.664Z,9.85
2023-03-22T01:41:18.756Z,9.91
2023-03-22T01:42:18.706Z,9.92
2023-03-22T01:43:18.698Z,9.92
2023-03-22T01:44:21.774Z,9.88
2023-03-22T01:45:18.665Z,9.91
2023-03-22T01:46:18.914Z,9.95
2023-03-22T01:47:18.689Z,9.94
2023-03-22T01:48:18.950Z,9.91
2023-03-22T01:49:18.920Z,9.97
2023-03-22T01:50:18.735Z,9.97
2023-03-22T01:51:18.729Z,9.85
2023-03-22T01:52:18.716Z,9.9
2023-03-22T01:53:18.687Z,9.73
2023-03-22T01:54:18.707Z,9.76
2023-03-22T01:55:21.777Z,9.87
2023-03-22T01:56:18.708Z,9.81
2023-03-22T01:57:18.754Z,9.85
2023-03-22T01:58:18.702Z,9.9
2023-03-22T01:59:18.669Z,9.9
2023-03-22T02:00:21.562Z,9.73
2023-03-22T02:01:18.972Z,9.81
2023-03-22T02:02:18.895Z,9.77
2023-03-22T02:03:18.742Z,9.7
2023-03-22T02:04:18.678Z,9.92
2023-03-22T02:05:18.735Z,9.82
2023-03-22T02:06:21.567Z,9.76
2023-03-22T02:07:18.732Z,9.76
2023-03-22T02:08:18.694Z,9.8
2023-03-22T02:09:18.698Z,9.84
2023-03-22T02:10:18.714Z,9.87
2023-03-22T02:11:19.867Z,9.81
2023-03-22T02:12:18.718Z,9.88
2023-03-22T02:13:18.710Z,9.8
2023-03-22T02:14:18.715Z,9.9
2023-03-22T02:15:18.714Z,9.81
2023-03-22T02:16:18.925Z,9.82
2023-03-22T02:17:21.710Z,9.84
2023-03-22T02:18:18.877Z,9.94
2023-03-22T02:19:18.756Z,10
2023-03-22T02:20:18.756Z,9.92
2023-03-22T02:21:18.758Z,9.87
2023-03-22T02:22:21.488Z,9.85
2023-03-22T02:23:18.716Z,9.84
2023-03-22T02:24:18.726Z,9.87
2023-03-22T02:25:18.792Z,9.81
2023-03-22T02:26:18.763Z,9.85
2023-03-22T02:27:18.732Z,9.84
2023-03-22T02:28:18.751Z,9.88
2023-03-22T02:29:18.843Z,9.94
2023-03-22T02:30:18.761Z,9.91
2023-03-22T02:31:18.967Z,9.91
2023-03-22T02:32:18.735Z,9.94
2023-03-22T02:33:21.773Z,9.92
2023-03-22T02:34:18.730Z,9.84
2023-03-22T02:35:18.825Z,9.87
2023-03-22T02:36:18.798Z,9.82
2023-03-22T02:37:18.773Z,9.99
2023-03-22T02:38:18.764Z,9.87
2023-03-22T02:39:18.783Z,9.99
2023-03-22T02:40:18.798Z,10.06
2023-03-22T02:41:18.767Z,10.03
2023-03-22T02:42:18.781Z,9.84
2023-03-22T02:43:18.743Z,9.97
2023-03-22T02:44:21.617Z,9.99
2023-03-22T02:45:18.780Z,9.95
2023-03-22T02:46:19.009Z,9.95
2023-03-22T02:47:18.750Z,9.94
2023-03-22T02:48:19.247Z,9.97
2023-03-22T02:49:18.797Z,9.85
2023-03-22T02:50:18.752Z,9.85
2023-03-22T02:51:18.843Z,9.77
2023-03-22T02:52:18.860Z,9.77
2023-03-22T02:53:18.907Z,9.67
2023-03-22T02:54:18.758Z,9.81
2023-03-22T02:55:21.801Z,9.81
2023-03-22T02:56:18.799Z,9.81
2023-03-22T02:57:18.761Z,9.8
2023-03-22T02:58:18.793Z,9.94
2023-03-22T02:59:18.774Z,9.85
2023-03-22T03:00:18.829Z,9.91
2023-03-22T03:01:18.948Z,9.88
2023-03-22T03:02:18.942Z,9.88
2023-03-22T03:03:18.767Z,9.81
2023-03-22T03:04:18.800Z,9.82
2023-03-22T03:05:18.840Z,9.82
2023-03-22T03:06:20.608Z,9.84
2023-03-22T03:07:19.018Z,9.81
2023-03-22T03:08:18.810Z,9.73
2023-03-22T03:09:18.839Z,9.73
2023-03-22T03:10:18.796Z,9.9
2023-03-22T03:11:18.852Z,9.94
2023-03-22T03:12:18.792Z,9.81
2023-03-22T03:13:18.798Z,9.8
2023-03-22T03:14:18.813Z,9.8
2023-03-22T03:15:18.839Z,9.52
2023-03-22T03:16:19.000Z,9.58
2023-03-22T03:17:21.947Z,9.58
2023-03-22T03:18:18.815Z,9.54
2023-03-22T03:19:18.850Z,9.54
2023-03-22T03:20:18.852Z,9.4
2023-03-22T03:21:18.872Z,9.4
2023-03-22T03:22:18.837Z,9.26
2023-03-22T03:23:18.868Z,9.26
2023-03-22T03:24:18.815Z,9.36
2023-03-22T03:25:18.805Z,9.19
2023-03-22T03:26:18.847Z,9.13
2023-03-22T03:27:18.814Z,9.24
2023-03-22T03:28:21.931Z,9.16
2023-03-22T03:29:18.828Z,9.09
2023-03-22T03:30:18.856Z,9.22
2023-03-22T03:31:19.085Z,9.26
2023-03-22T03:32:18.876Z,9.24
2023-03-22T03:33:18.857Z,9.09
2023-03-22T03:34:18.861Z,9.05
2023-03-22T03:35:18.868Z,8.96
2023-03-22T03:36:18.899Z,8.87
2023-03-22T03:37:18.881Z,8.87
2023-03-22T03:38:18.817Z,8.86
2023-03-22T03:39:21.671Z,8.78
2023-03-22T03:40:18.860Z,8.81
2023-03-22T03:41:18.878Z,8.87
2023-03-22T03:42:18.870Z,8.79
2023-03-22T03:43:18.847Z,8.84
2023-03-22T03:44:18.845Z,8.82
2023-03-22T03:45:18.836Z,8.87
2023-03-22T03:46:19.021Z,8.77
2023-03-22T03:47:18.910Z,8.81
2023-03-22T03:48:19.145Z,8.82
2023-03-22T03:49:18.865Z,8.77
2023-03-22T03:50:18.852Z,8.72
2023-03-22T03:51:18.918Z,8.61
2023-03-22T03:52:18.866Z,8.77
2023-03-22T03:53:18.930Z,8.74
2023-03-22T03:54:18.872Z,8.74
2023-03-22T03:55:18.902Z,8.68
2023-03-22T03:56:18.940Z,8.78
2023-03-22T03:57:18.984Z,8.77
2023-03-22T03:58:18.864Z,8.74
2023-03-22T03:59:18.927Z,8.52
2023-03-22T04:00:18.881Z,8.72
2023-03-22T04:01:18.897Z,8.74
2023-03-22T04:02:19.101Z,8.56
2023-03-22T04:03:18.908Z,8.72
2023-03-22T04:04:19.304Z,8.71
2023-03-22T04:05:18.875Z,8.56
2023-03-22T04:06:18.899Z,8.59
2023-03-22T04:07:18.883Z,8.6
2023-03-22T04:08:18.896Z,8.71
2023-03-22T04:09:18.904Z,8.66
2023-03-22T04:10:18.900Z,8.44
2023-03-22T04:11:20.386Z,8.54
2023-03-22T04:12:18.895Z,8.61
2023-03-22T04:13:18.879Z,8.54
2023-03-22T04:14:18.907Z,8.52
2023-03-22T04:15:18.911Z,8.54
2023-03-22T04:16:19.086Z,8.59
2023-03-22T04:17:18.901Z,8.6
2023-03-22T04:18:18.908Z,8.64
2023-03-22T04:19:18.920Z,8.56
2023-03-22T04:20:18.958Z,8.68
2023-03-22T04:21:18.911Z,8.74
2023-03-22T04:22:21.902Z,8.71
2023-03-22T04:23:18.908Z,8.71
2023-03-22T04:24:18.909Z,8.69
2023-03-22T04:25:18.922Z,8.72
2023-03-22T04:26:19.011Z,8.75
2023-03-22T04:27:21.951Z,8.74
2023-03-22T04:28:18.921Z,8.69
2023-03-22T04:29:18.941Z,8.61
2023-03-22T04:30:18.950Z,8.56
2023-03-22T04:31:19.104Z,8.53
2023-03-22T04:32:18.947Z,8.68
2023-03-22T04:33:22.007Z,8.69
2023-03-22T04:34:18.924Z,8.63
2023-03-22T04:35:19.033Z,8.64
2023-03-22T04:36:18.985Z,8.69
2023-03-22T04:37:18.937Z,8.72
2023-03-22T04:38:19.972Z,8.68
2023-03-22T04:39:18.925Z,8.72
2023-03-22T04:40:18.991Z,8.59
2023-03-22T04:41:18.943Z,8.64
2023-03-22T04:42:18.931Z,8.56
2023-03-22T04:43:18.997Z,8.53
2023-03-22T04:44:22.029Z,8.5
2023-03-22T04:45:18.986Z,8.5
2023-03-22T04:46:19.178Z,8.46
2023-03-22T04:47:18.927Z,8.54
2023-03-22T04:48:19.110Z,8.45
2023-03-22T04:49:21.754Z,8.44
2023-03-22T04:50:18.926Z,8.49
2023-03-22T04:51:18.954Z,8.32
2023-03-22T04:52:18.963Z,8.44
2023-03-22T04:53:18.945Z,8.42
2023-03-22T04:54:18.973Z,8.41
2023-03-22T04:55:22.059Z,8.45
2023-03-22T04:56:18.943Z,8.45
2023-03-22T04:57:19.016Z,8.52
2023-03-22T04:58:18.962Z,8.38
2023-03-22T04:59:18.973Z,8.39
2023-03-22T05:00:21.862Z,8.31
2023-03-22T05:01:19.175Z,8.38
2023-03-22T05:02:18.986Z,8.46
2023-03-22T05:03:19.022Z,8.41
2023-03-22T05:04:18.977Z,8.5
2023-03-22T05:05:19.039Z,8.49
2023-03-22T05:06:18.969Z,8.53
2023-03-22T05:07:18.973Z,8.49
2023-03-22T05:08:19.004Z,8.52
2023-03-22T05:09:19.992Z,8.5
2023-03-22T05:10:18.986Z,8.49
2023-03-22T05:11:21.807Z,8.5
2023-03-22T05:12:19.001Z,8.5
2023-03-22T05:13:19.179Z,8.44
2023-03-22T05:14:19.163Z,8.5
2023-03-22T05:15:19.020Z,8.46
2023-03-22T05:16:19.229Z,8.54
2023-03-22T05:17:19.007Z,8.53
2023-03-22T05:18:19.009Z,8.54
2023-03-22T05:19:19.012Z,8.42
2023-03-22T05:20:18.981Z,8.36
2023-03-22T05:21:20.337Z,8.32
2023-03-22T05:22:20.079Z,8.34
2023-03-22T05:23:19.007Z,8.14
2023-03-22T05:24:19.013Z,8.27
2023-03-22T05:25:19.010Z,8.26
2023-03-22T05:26:18.999Z,8.2
2023-03-22T05:27:19.169Z,8.27
2023-03-22T05:28:18.832Z,8.23
2023-03-22T05:29:19.032Z,8.2
2023-03-22T05:30:22.049Z,8.28
2023-03-22T05:31:19.155Z,8.26
2023-03-22T05:32:19.047Z,8.26
2023-03-22T05:33:22.032Z,8.35
2023-03-22T05:34:19.017Z,8.26
2023-03-22T05:35:19.043Z,8.32
2023-03-22T05:36:19.047Z,8.38
2023-03-22T05:37:18.885Z,8.36
2023-03-22T05:38:19.040Z,8.41
2023-03-22T05:39:19.024Z,8.45
2023-03-22T05:40:19.039Z,8.44
2023-03-22T05:41:19.043Z,8.35
2023-03-22T05:42:19.046Z,8.42
2023-03-22T05:43:19.010Z,8.41
2023-03-22T05:44:22.071Z,8.5
2023-03-22T05:45:19.056Z,8.42
2023-03-22T05:46:19.197Z,8.54
2023-03-22T05:47:19.064Z,8.42
2023-03-22T05:48:19.221Z,8.45
2023-03-22T05:49:19.079Z,8.42
2023-03-22T05:50:19.046Z,8.52
2023-03-22T05:51:18.880Z,8.52
2023-03-22T05:52:19.070Z,8.54
2023-03-22T05:53:19.028Z,8.54
2023-03-22T05:54:19.088Z,8.53
2023-03-22T05:55:23.121Z,8.54
2023-03-22T05:56:19.083Z,8.61
2023-03-22T05:57:19.075Z,8.71
2023-03-22T05:58:19.261Z,8.79
2023-03-22T05:59:19.045Z,8.79
2023-03-22T06:00:19.058Z,8.79
2023-03-22T06:01:19.080Z,8.89
2023-03-22T06:02:19.319Z,8.82
2023-03-22T06:03:21.561Z,8.9
2023-03-22T06:04:19.053Z,8.93
2023-03-22T06:05:19.050Z,8.95
2023-03-22T06:06:21.907Z,8.95
2023-03-22T06:07:19.081Z,8.96
2023-03-22T06:08:19.069Z,8.95
2023-03-22T06:09:22.366Z,9.16
2023-03-22T06:10:19.077Z,9.15
2023-03-22T06:11:19.070Z,9.21
2023-03-22T06:12:19.164Z,9.21
2023-03-22T06:13:19.318Z,9.3
2023-03-22T06:14:19.095Z,9.21
2023-03-22T06:15:19.069Z,9.44
2023-03-22T06:16:19.235Z,9.45
2023-03-22T06:17:19.129Z,9.58
2023-03-22T06:18:19.216Z,9.51
2023-03-22T06:19:19.083Z,9.69
2023-03-22T06:20:19.159Z,9.74
2023-03-22T06:21:19.080Z,9.88
2023-03-22T06:22:19.115Z,10
2023-03-22T06:23:19.092Z,10.23
2023-03-22T06:24:19.097Z,10.27
2023-03-22T06:25:19.111Z,10.42
2023-03-22T06:26:19.112Z,10.57
2023-03-22T06:27:19.136Z,10.64
2023-03-22T06:28:19.155Z,10.84
2023-03-22T06:29:19.185Z,10.86
2023-03-22T06:30:19.135Z,10.92
2023-03-22T06:31:19.457Z,11.02
2023-03-22T06:32:19.168Z,11.23
2023-03-22T06:33:19.139Z,11.33
2023-03-22T06:34:19.155Z,11.31
2023-03-22T06:35:19.194Z,11.45
2023-03-22T06:36:19.101Z,11.56
2023-03-22T06:37:19.128Z,11.53
2023-03-22T06:38:22.443Z,11.59
2023-03-22T06:39:19.112Z,11.77
2023-03-22T06:40:19.117Z,11.91
2023-03-22T06:41:19.114Z,12.02
2023-03-22T06:42:19.155Z,12.17
2023-03-22T06:43:19.152Z,12.28
2023-03-22T06:44:19.153Z,12.39
2023-03-22T06:45:19.146Z,12.44
2023-03-22T06:46:19.420Z,12.65
2023-03-22T06:47:19.140Z,12.78
2023-03-22T06:48:19.423Z,12.7
2023-03-22T06:49:20.236Z,12.9
2023-03-22T06:50:19.176Z,12.88
2023-03-22T06:51:19.152Z,13.03
2023-03-22T06:52:19.163Z,13.11
2023-03-22T06:53:20.169Z,13.19
2023-03-22T06:54:22.252Z,13.19
2023-03-22T06:55:19.141Z,13.36
2023-03-22T06:56:19.149Z,13.52
2023-03-22T06:57:19.142Z,13.55
2023-03-22T06:58:19.161Z,13.7
2023-03-22T06:59:19.167Z,13.71
2023-03-22T07:00:22.197Z,13.86
2023-03-22T07:01:19.331Z,13.89
2023-03-22T07:02:19.178Z,13.86
2023-03-22T07:03:19.134Z,14.03
2023-03-22T07:04:19.368Z,14.11
2023-03-22T07:05:22.009Z,14.28
2023-03-22T07:06:19.123Z,14.34
2023-03-22T07:07:18.998Z,14.51
2023-03-22T07:08:19.155Z,14.53
2023-03-22T07:09:19.139Z,14.61
2023-03-22T07:10:19.167Z,14.81
2023-03-22T07:11:21.909Z,14.94
2023-03-22T07:12:19.674Z,15.12
2023-03-22T07:13:18.995Z,15.3
2023-03-22T07:14:19.158Z,15.37
2023-03-22T07:15:19.153Z,15.43
2023-03-22T07:16:24.734Z,15.62
2023-03-22T07:17:19.217Z,15.66
2023-03-22T07:18:19.185Z,15.85
2023-03-22T07:19:19.163Z,15.69
2023-03-22T07:20:19.217Z,15.99
2023-03-22T07:21:19.321Z,16.13
2023-03-22T07:22:22.026Z,16.12
2023-03-22T07:23:19.197Z,16.21
2023-03-22T07:24:19.176Z,16.18
2023-03-22T07:25:19.182Z,16.29
2023-03-22T07:26:19.243Z,16.43
2023-03-22T07:27:23.108Z,16.46
2023-03-22T07:28:19.202Z,16.58
2023-03-22T07:29:19.204Z,16.72
2023-03-22T07:30:19.169Z,16.72
2023-03-22T07:31:19.215Z,16.79
2023-03-22T07:32:19.509Z,16.82
2023-03-22T07:33:19.203Z,16.72
2023-03-22T07:34:19.245Z,17.07
2023-03-22T07:35:19.375Z,16.91
2023-03-22T07:36:19.201Z,17.1
2023-03-22T07:37:19.287Z,17.05
2023-03-22T07:38:22.348Z,17.23
2023-03-22T07:39:19.195Z,17.32
2023-03-22T07:40:19.214Z,17.28
2023-03-22T07:41:19.200Z,17.66
2023-03-22T07:42:19.223Z,17.65
2023-03-22T07:43:19.217Z,17.68
2023-03-22T07:44:25.276Z,17.93
2023-03-22T07:45:19.357Z,17.79
2023-03-22T07:46:19.390Z,17.95
2023-03-22T07:47:39.782Z,17.95
2023-03-22T07:48:20.712Z,18.19
2023-03-22T07:49:22.034Z,18.23
2023-03-22T07:50:19.339Z,18.23
2023-03-22T07:51:19.308Z,18.41
2023-03-22T07:52:19.253Z,18.41
2023-03-22T07:53:19.313Z,18
2023-03-22T07:54:37.084Z,18.09
2023-03-22T07:55:19.455Z,18.13
2023-03-22T07:56:19.245Z,18.36
2023-03-22T07:57:19.276Z,18.6
2023-03-22T07:58:19.262Z,18.82
2023-03-22T07:59:19.461Z,18.71
2023-03-22T08:00:22.035Z,18.83
2023-03-22T08:01:19.284Z,18.81
2023-03-22T08:02:19.554Z,18.94
2023-03-22T08:03:19.436Z,18.96
2023-03-22T08:04:19.286Z,18.91
2023-03-22T08:05:19.283Z,18.96
2023-03-22T08:06:19.309Z,18.97
2023-03-22T08:07:19.281Z,19.19
2023-03-22T08:08:19.275Z,19.27
2023-03-22T08:09:19.337Z,19.47
2023-03-22T08:10:19.306Z,19.55
2023-03-22T08:11:22.366Z,19.77
2023-03-22T08:12:19.362Z,19.49
2023-03-22T08:13:19.251Z,19.47
2023-03-22T08:14:35.818Z,19.08
2023-03-22T08:15:21.381Z,19.24
2023-03-22T08:16:19.452Z,19.48
2023-03-22T08:17:19.298Z,19.67
2023-03-22T08:18:19.283Z,19.81
2023-03-22T08:19:19.290Z,20.02
2023-03-22T08:20:19.325Z,20
2023-03-22T08:21:19.684Z,20.14
2023-03-22T08:22:22.126Z,20.34
2023-03-22T08:23:24.385Z,20.32
2023-03-22T08:24:19.291Z,20.49
2023-03-22T08:25:19.349Z,20.59
2023-03-22T08:26:19.383Z,20.52
2023-03-22T08:27:19.323Z,20.3
2023-03-22T08:28:19.324Z,20.52
2023-03-22T08:29:19.303Z,20.64
2023-03-22T08:30:19.354Z,20.75
2023-03-22T08:31:20.246Z,20.17
2023-03-22T08:32:19.349Z,20.42
2023-03-22T08:33:22.361Z,20.42
2023-03-22T08:34:19.305Z,20.08
2023-03-22T08:35:19.407Z,19.6
2023-03-22T08:36:19.386Z,19.64
2023-03-22T08:37:19.404Z,19.7
2023-03-22T08:38:19.321Z,19.78
2023-03-22T08:39:19.339Z,20.14
2023-03-22T08:40:19.477Z,19.93
2023-03-22T08:41:19.385Z,19.9
2023-03-22T08:42:19.386Z,20
2023-03-22T08:43:19.338Z,20.17
2023-03-22T08:44:19.372Z,20.39
2023-03-22T08:45:19.356Z,20.48
2023-03-22T08:46:19.574Z,20.77
2023-03-22T08:47:19.384Z,20.71
2023-03-22T08:48:19.647Z,20.68
2023-03-22T08:49:19.377Z,20.44
2023-03-22T08:50:19.363Z,19.71
2023-03-22T08:51:21.506Z,20.04
2023-03-22T08:52:19.406Z,20.26
2023-03-22T08:53:19.351Z,20
2023-03-22T08:54:19.360Z,20.04
2023-03-22T08:55:19.348Z,19.93
2023-03-22T08:56:19.331Z,20.14
2023-03-22T08:57:19.424Z,19.99
2023-03-22T08:58:19.325Z,20.04
2023-03-22T08:59:19.342Z,20.36
2023-03-22T09:00:19.384Z,20.37
2023-03-22T09:01:19.719Z,20.39
2023-03-22T09:02:19.658Z,20.46
2023-03-22T09:03:19.392Z,19.94
2023-03-22T09:04:19.551Z,20.21
2023-03-22T09:05:22.403Z,20.63
2023-03-22T09:06:19.389Z,20.42
2023-03-22T09:07:19.395Z,20.63
2023-03-22T09:08:24.146Z,20.3
2023-03-22T09:09:19.382Z,20.55
2023-03-22T09:10:19.371Z,20.92
2023-03-22T09:11:22.193Z,21.13
2023-03-22T09:12:19.490Z,21.14
2023-03-22T09:13:19.568Z,21.1
2023-03-22T09:14:19.410Z,21
2023-03-22T09:15:19.409Z,21.22
2023-03-22T09:16:22.779Z,21.7
2023-03-22T09:17:21.373Z,21.83
2023-03-22T09:18:19.405Z,21.59
2023-03-22T09:19:19.390Z,21.72
2023-03-22T09:20:19.401Z,21.84
2023-03-22T09:21:22.529Z,22.12
2023-03-22T09:22:19.447Z,22.46
2023-03-22T09:23:19.451Z,22.67
2023-03-22T09:24:19.445Z,21.92
2023-03-22T09:25:19.403Z,21.53
2023-03-22T09:26:19.382Z,21.19
2023-03-22T09:27:22.567Z,21.4
2023-03-22T09:28:19.682Z,21.11
2023-03-22T09:29:19.576Z,21.19
2023-03-22T09:30:19.476Z,21.14
2023-03-22T09:31:22.604Z,20.98
2023-03-22T09:32:21.128Z,20.73
2023-03-22T09:33:19.397Z,21.04
2023-03-22T09:34:19.440Z,20.83
2023-03-22T09:35:19.441Z,21.04
2023-03-22T09:36:19.411Z,20.95
2023-03-22T09:37:19.446Z,20.67
2023-03-22T09:38:20.619Z,20.26
2023-03-22T09:39:19.437Z,20.88
2023-03-22T09:40:19.480Z,20.85
2023-03-22T09:41:19.422Z,20.86
2023-03-22T09:42:19.444Z,20.78
2023-03-22T09:43:22.277Z,20.73
2023-03-22T09:44:19.433Z,20.98
2023-03-22T09:45:19.562Z,20.77
2023-03-22T09:46:19.742Z,20.7
2023-03-22T09:47:19.459Z,21.3
2023-03-22T09:48:19.674Z,21.69
2023-03-22T09:49:22.220Z,21.33
2023-03-22T09:50:19.442Z,21.29
2023-03-22T09:51:19.448Z,21.5
2023-03-22T09:52:19.762Z,21.22
2023-03-22T09:53:19.440Z,21.32
2023-03-22T09:54:22.335Z,21.01
2023-03-22T09:55:19.476Z,21.03
2023-03-22T09:56:19.517Z,20.82
2023-03-22T09:57:19.520Z,21.48
2023-03-22T09:58:19.569Z,21.4
2023-03-22T09:59:19.455Z,20.96
2023-03-22T10:00:19.695Z,20.92
2023-03-22T10:01:23.421Z,21.19
2023-03-22T10:02:19.930Z,21.35
2023-03-22T10:03:19.451Z,21.37
2023-03-22T10:04:19.613Z,21.37
2023-03-22T10:05:19.653Z,21.68
2023-03-22T10:06:19.480Z,21.91
2023-03-22T10:07:19.469Z,21.78
2023-03-22T10:08:19.467Z,21.3
2023-03-22T10:09:19.526Z,20.92
2023-03-22T10:10:19.502Z,20.42
2023-03-22T10:11:19.504Z,20.49
2023-03-22T10:12:19.545Z,20.67
2023-03-22T10:13:19.492Z,20.36
2023-03-22T10:14:19.486Z,19.6
2023-03-22T10:15:19.483Z,19.66
2023-03-22T10:16:22.958Z,20.17
2023-03-22T10:17:19.569Z,20.4
2023-03-22T10:18:19.533Z,20.71
2023-03-22T10:19:19.540Z,20.66
2023-03-22T10:20:19.672Z,20.75
2023-03-22T10:21:19.503Z,20.66
2023-03-22T10:22:19.576Z,20.42
2023-03-22T10:23:19.492Z,20.36
2023-03-22T10:24:19.537Z,20.39
2023-03-22T10:25:19.513Z,20.6
2023-03-22T10:26:19.537Z,20.7
2023-03-22T10:27:20.940Z,20.5
2023-03-22T10:28:19.555Z,20.78
2023-03-22T10:29:19.546Z,20.98
2023-03-22T10:30:19.602Z,20.85
2023-03-22T10:31:19.587Z,20.85
2023-03-22T10:32:19.616Z,21.38
2023-03-22T10:33:19.548Z,21.47
2023-03-22T10:34:19.525Z,21.77
2023-03-22T10:35:19.657Z,21.28
2023-03-22T10:36:19.527Z,21.56
2023-03-22T10:37:19.523Z,21.54
2023-03-22T10:38:25.548Z,21.81
2023-03-22T10:39:19.537Z,21.97
2023-03-22T10:40:19.552Z,22.14
2023-03-22T10:41:19.573Z,21.75
2023-03-22T10:42:19.517Z,21.56
2023-03-22T10:43:19.542Z,21.59
2023-03-22T10:44:19.542Z,21.75
2023-03-22T10:45:19.770Z,21.94
2023-03-22T10:46:19.785Z,21.99
2023-03-22T10:47:19.540Z,21.92
2023-03-22T10:48:22.271Z,21.92
2023-03-22T10:49:22.589Z,21.92
2023-03-22T10:50:20.026Z,22.03
2023-03-22T10:51:22.315Z,22.03
2023-03-22T10:52:19.586Z,22.34
2023-03-22T10:53:19.552Z,22.4
2023-03-22T10:54:19.592Z,22.61
2023-03-22T10:55:19.556Z,22.91
2023-03-22T10:56:19.556Z,22.96
2023-03-22T10:57:19.730Z,22.76
2023-03-22T10:58:19.589Z,22.4
2023-03-22T10:59:19.569Z,22.47
2023-03-22T11:00:22.614Z,22.78
2023-03-22T11:01:20.053Z,22.96
2023-03-22T11:02:19.941Z,22.96
2023-03-22T11:03:19.697Z,23.18
2023-03-22T11:04:19.831Z,22.86
2023-03-22T11:05:19.661Z,22.95
2023-03-22T11:06:19.635Z,22.74
2023-03-22T11:07:19.598Z,22.91
2023-03-22T11:08:19.589Z,22.63
2023-03-22T11:09:19.584Z,22.62
2023-03-22T11:10:19.821Z,22.33
2023-03-22T11:11:19.643Z,22.62
2023-03-22T11:12:19.596Z,22.52
2023-03-22T11:13:19.600Z,22.26
2023-03-22T11:14:19.587Z,21.91
2023-03-22T11:15:19.595Z,22.22
2023-03-22T11:16:19.756Z,22.61
2023-03-22T11:17:19.635Z,22.61
2023-03-22T11:18:19.624Z,22.43
2023-03-22T11:19:19.628Z,22.56
2023-03-22T11:20:19.976Z,22.89
2023-03-22T11:21:19.679Z,23.32
2023-03-22T11:22:19.620Z,22.98
2023-03-22T11:23:19.441Z,23.13
2023-03-22T11:24:19.625Z,23.11
2023-03-22T11:25:19.477Z,23.34
2023-03-22T11:26:19.620Z,23.45
2023-03-22T11:27:19.615Z,23.02
2023-03-22T11:28:19.692Z,22.78
2023-03-22T11:29:19.636Z,23.07
2023-03-22T11:30:19.741Z,23.02
2023-03-22T11:31:19.883Z,22.77
2023-03-22T11:32:20.207Z,23.02
2023-03-22T11:33:19.898Z,22.53
2023-03-22T11:34:19.720Z,22.77
2023-03-22T11:35:19.632Z,22.93
2023-03-22T11:36:19.704Z,23.33
2023-03-22T11:37:22.629Z,23.39
2023-03-22T11:38:21.286Z,23.23
2023-03-22T11:39:19.660Z,23.26
2023-03-22T11:40:19.812Z,23.51
2023-03-22T11:41:20.123Z,23.36
2023-03-22T11:42:19.645Z,23.39
2023-03-22T11:43:22.536Z,23.06
2023-03-22T11:44:19.712Z,23.44
2023-03-22T11:45:19.659Z,23.62
2023-03-22T11:46:19.837Z,23.62
2023-03-22T11:47:19.685Z,23.45
2023-03-22T11:48:20.662Z,23.73
2023-03-22T11:49:19.756Z,23.74
2023-03-22T11:50:19.707Z,23.74
2023-03-22T11:51:19.671Z,23.56
2023-03-22T11:52:19.699Z,23.23
2023-03-22T11:53:19.762Z,23.49
2023-03-22T11:54:22.675Z,22.96
2023-03-22T11:55:19.671Z,23.02
2023-03-22T11:56:19.690Z,23.29
2023-03-22T11:57:19.790Z,23.4
2023-03-22T11:58:19.710Z,23.59
2023-03-22T11:59:22.781Z,23.85
2023-03-22T12:00:19.711Z,23.63
2023-03-22T12:01:19.712Z,23.49
2023-03-22T12:02:19.819Z,23.08
2023-03-22T12:03:20.219Z,23.11
2023-03-22T12:04:19.901Z,23.01
2023-03-22T12:05:22.786Z,23.23
2023-03-22T12:06:19.968Z,23.1
2023-03-22T12:07:19.697Z,23.01
2023-03-22T12:08:19.772Z,23.23
2023-03-22T12:09:19.742Z,22.8
2023-03-22T12:10:22.500Z,22.58
2023-03-22T12:11:19.735Z,22.51
2023-03-22T12:12:19.785Z,22.62
2023-03-22T12:13:19.805Z,22.7
2023-03-22T12:14:19.762Z,22.3
2023-03-22T12:15:19.720Z,22.23
2023-03-22T12:16:24.830Z,22.04
2023-03-22T12:17:19.704Z,22
2023-03-22T12:18:20.004Z,21.97
2023-03-22T12:19:19.737Z,22.18
2023-03-22T12:20:19.774Z,22.21
2023-03-22T12:21:22.815Z,22.36
2023-03-22T12:22:19.745Z,22.52
2023-03-22T12:23:19.815Z,22.1
2023-03-22T12:24:19.762Z,22.12
2023-03-22T12:25:21.624Z,22
2023-03-22T12:26:19.732Z,22.16
2023-03-22T12:27:19.760Z,22.41
2023-03-22T12:28:19.767Z,22.49
2023-03-22T12:29:19.916Z,22.81
2023-03-22T12:30:19.946Z,23.02
2023-03-22T12:31:19.996Z,23.2
2023-03-22T12:32:22.649Z,23.45
2023-03-22T12:33:20.065Z,23.28
2023-03-22T12:34:19.763Z,23.37
2023-03-22T12:35:22.684Z,23.71
2023-03-22T12:36:19.882Z,23.51
2023-03-22T12:37:19.787Z,23.88
2023-03-22T12:38:19.799Z,23.69
2023-03-22T12:39:19.758Z,23.51
2023-03-22T12:40:19.891Z,23.21
2023-03-22T12:41:19.944Z,22.83
2023-03-22T12:42:19.762Z,23.28
2023-03-22T12:43:21.048Z,22.98
2023-03-22T12:44:19.765Z,23.04
2023-03-22T12:45:19.802Z,23.2
2023-03-22T12:46:19.948Z,23.07
2023-03-22T12:47:19.921Z,23.01
2023-03-22T12:48:20.196Z,22.98
2023-03-22T12:49:19.829Z,23.07
2023-03-22T12:50:19.794Z,23.16
2023-03-22T12:51:19.828Z,23.06
2023-03-22T12:52:19.898Z,22.99
2023-03-22T12:53:19.836Z,22.76
2023-03-22T12:54:20.872Z,22.58
2023-03-22T12:55:20.035Z,22.67
2023-03-22T12:56:19.845Z,22.81
2023-03-22T12:57:19.844Z,23.07
2023-03-22T12:58:19.857Z,22.81
2023-03-22T12:59:19.794Z,22.88
2023-03-22T13:00:19.840Z,22.98
2023-03-22T13:01:20.289Z,22.96
2023-03-22T13:02:19.821Z,22.84
2023-03-22T13:03:20.426Z,22.58
2023-03-22T13:04:19.937Z,22.7
2023-03-22T13:05:22.643Z,22.58